sensor_id;sensor_type;location;lat;lon;timestamp;pressure;altitude;pressure_sealevel;temperature
79498;BMP180;75160;53.138;18.020;2024-02-23T00:00:59;98322.00;;;
79498;BMP180;75160;53.138;18.020;2024-02-23T00:02:21;98328.20;;;
79498;BMP180;75160;53.138;18.020;2024-02-23T00:03:23;98328.00;;;
79498;BMP180;75160;53.138;18.020;2024-02-23T00:04:25;98327.20;;;
79498;BMP180;75160;53.138;18.020;2024-02-23T00:05:26;98324.40;;;
79498;BMP180;75160;53.138;18.020;2024-02-23T00:06:28;98324.40;;;
79498;BMP180;75160;53.138;18.020;2024-02-23T00:07:31;98327.00;;;
79498;BMP180;75160;53.138;18.020;2024-02-23T00:08:33;98322.40;;;
79498;BMP180;75160;53.138;18.020;2024-02-23T00:09:34;98325.60;;;
79498;BMP180;75160;53.138;18.020;2024-02-23T00:10:36;98326.20;;;
79498;BMP180;75160;53.138;18.020;2024-02-23T00:11:41;98324.40;;;
79498;BMP180;75160;53.138;18.020;2024-02-23T00:12:46;98328.00;;;
79498;BMP180;75160;53.138;18.020;2024-02-23T00:13:49;98326.60;;;
79498;BMP180;75160;53.138;18.020;2024-02-23T00:14:51;98328.60;;;
79498;BMP180;75160;53.138;18.020;2024-02-23T00:15:53;98332.40;;;
79498;BMP180;75160;53.138;18.020;2024-02-23T00:16:54;98330.60;;;
79498;BMP180;75160;53.138;18.020;2024-02-23T00:17:56;98332.00;;;
79498;BMP180;75160;53.138;18.020;2024-02-23T00:18:58;98336.00;;;
79498;BMP180;75160;53.138;18.020;2024-02-23T00:20:00;98333.20;;;
79498;BMP180;75160;53.138;18.020;2024-02-23T00:21:02;98339.80;;;
79498;BMP180;75160;53.138;18.020;2024-02-23T00:22:04;98338.80;;;
79498;BMP180;75160;53.138;18.020;2024-02-23T00:23:06;98338.00;;;
79498;BMP180;75160;53.138;18.020;2024-02-23T00:24:08;98336.20;;;
79498;BMP180;75160;53.138;18.020;2024-02-23T00:25:09;98334.00;;;
79498;BMP180;75160;53.138;18.020;2024-02-23T00:26:11;98331.20;;;
79498;BMP180;75160;53.138;18.020;2024-02-23T00:27:13;98333.60;;;
79498;BMP180;75160;53.138;18.020;2024-02-23T00:28:15;98329.80;;;
79498;BMP180;75160;53.138;18.020;2024-02-23T00:29:17;98335.40;;;
79498;BMP180;75160;53.138;18.020;2024-02-23T00:30:19;98333.80;;;
79498;BMP180;75160;53.138;18.020;2024-02-23T00:31:21;98327.80;;;
79498;BMP180;75160;53.138;18.020;2024-02-23T00:32:23;98326.20;;;
79498;BMP180;75160;53.138;18.020;2024-02-23T00:33:24;98326.60;;;
79498;BMP180;75160;53.138;18.020;2024-02-23T00:34:26;98325.60;;;
79498;BMP180;75160;53.138;18.020;2024-02-23T00:35:29;98324.80;;;
79498;BMP180;75160;53.138;18.020;2024-02-23T00:36:30;98317.20;;;
79498;BMP180;75160;53.138;18.020;2024-02-23T00:37:32;98317.20;;;
79498;BMP180;75160;53.138;18.020;2024-02-23T00:38:37;98321.20;;;
79498;BMP180;75160;53.138;18.020;2024-02-23T00:39:39;98321.40;;;
79498;BMP180;75160;53.138;18.020;2024-02-23T00:40:40;98323.60;;;
79498;BMP180;75160;53.138;18.020;2024-02-23T00:41:42;98319.20;;;
79498;BMP180;75160;53.138;18.020;2024-02-23T00:42:44;98316.00;;;
79498;BMP180;75160;53.138;18.020;2024-02-23T00:43:46;98319.60;;;
79498;BMP180;75160;53.138;18.020;2024-02-23T00:44:49;98319.60;;;
79498;BMP180;75160;53.138;18.020;2024-02-23T00:45:50;98319.00;;;
79498;BMP180;75160;53.138;18.020;2024-02-23T00:46:52;98315.20;;;
79498;BMP180;75160;53.138;18.020;2024-02-23T00:47:54;98318.20;;;
79498;BMP180;75160;53.138;18.020;2024-02-23T00:48:56;98317.00;;;
79498;BMP180;75160;53.138;18.020;2024-02-23T00:49:58;98320.80;;;
79498;BMP180;75160;53.138;18.020;2024-02-23T00:51:02;98318.60;;;
79498;BMP180;75160;53.138;18.020;2024-02-23T00:52:04;98315.00;;;
79498;BMP180;75160;53.138;18.020;2024-02-23T00:53:06;98322.80;;;
79498;BMP180;75160;53.138;18.020;2024-02-23T00:54:08;98311.20;;;
79498;BMP180;75160;53.138;18.020;2024-02-23T00:55:10;98304.40;;;
79498;BMP180;75160;53.138;18.020;2024-02-23T00:56:12;98309.20;;;
79498;BMP180;75160;53.138;18.020;2024-02-23T00:57:17;98307.60;;;
79498;BMP180;75160;53.138;18.020;2024-02-23T00:58:23;98303.00;;;
79498;BMP180;75160;53.138;18.020;2024-02-23T00:59:25;98304.00;;;
79498;BMP180;75160;53.138;18.020;2024-02-23T01:00:28;98307.60;;;
79498;BMP180;75160;53.138;18.020;2024-02-23T01:01:30;98305.60;;;
79498;BMP180;75160;53.138;18.020;2024-02-23T01:02:33;98299.40;;;
79498;BMP180;75160;53.138;18.020;2024-02-23T01:03:35;98293.60;;;
79498;BMP180;75160;53.138;18.020;2024-02-23T01:04:37;98294.40;;;
79498;BMP180;75160;53.138;18.020;2024-02-23T01:05:39;98297.80;;;
79498;BMP180;75160;53.138;18.020;2024-02-23T01:06:41;98297.40;;;
79498;BMP180;75160;53.138;18.020;2024-02-23T01:07:43;98302.40;;;
79498;BMP180;75160;53.138;18.020;2024-02-23T01:08:44;98299.80;;;
79498;BMP180;75160;53.138;18.020;2024-02-23T01:09:47;98298.60;;;
79498;BMP180;75160;53.138;18.020;2024-02-23T01:10:48;98297.80;;;
79498;BMP180;75160;53.138;18.020;2024-02-23T01:11:50;98297.00;;;
79498;BMP180;75160;53.138;18.020;2024-02-23T01:12:52;98295.80;;;
79498;BMP180;75160;53.138;18.020;2024-02-23T01:13:54;98294.00;;;
79498;BMP180;75160;53.138;18.020;2024-02-23T01:14:56;98295.60;;;
79498;BMP180;75160;53.138;18.020;2024-02-23T01:15:58;98300.20;;;
79498;BMP180;75160;53.138;18.020;2024-02-23T01:16:59;98293.40;;;
79498;BMP180;75160;53.138;18.020;2024-02-23T01:18:03;98296.60;;;
79498;BMP180;75160;53.138;18.020;2024-02-23T01:19:07;98289.80;;;
79498;BMP180;75160;53.138;18.020;2024-02-23T01:20:10;98281.60;;;
79498;BMP180;75160;53.138;18.020;2024-02-23T01:21:13;98286.20;;;
79498;BMP180;75160;53.138;18.020;2024-02-23T01:22:15;98287.80;;;
79498;BMP180;75160;53.138;18.020;2024-02-23T01:23:17;98283.80;;;
79498;BMP180;75160;53.138;18.020;2024-02-23T01:24:19;98289.20;;;
79498;BMP180;75160;53.138;18.020;2024-02-23T01:25:21;98280.00;;;
79498;BMP180;75160;53.138;18.020;2024-02-23T01:26:24;98287.60;;;
79498;BMP180;75160;53.138;18.020;2024-02-23T01:27:26;98283.00;;;
79498;BMP180;75160;53.138;18.020;2024-02-23T01:28:28;98285.40;;;
79498;BMP180;75160;53.138;18.020;2024-02-23T01:29:29;98283.80;;;
79498;BMP180;75160;53.138;18.020;2024-02-23T01:30:31;98282.60;;;
79498;BMP180;75160;53.138;18.020;2024-02-23T01:31:33;98285.80;;;
79498;BMP180;75160;53.138;18.020;2024-02-23T01:32:35;98291.40;;;
79498;BMP180;75160;53.138;18.020;2024-02-23T01:33:39;98294.40;;;
79498;BMP180;75160;53.138;18.020;2024-02-23T01:34:41;98290.40;;;
79498;BMP180;75160;53.138;18.020;2024-02-23T01:35:43;98287.40;;;
79498;BMP180;75160;53.138;18.020;2024-02-23T01:36:44;98294.20;;;
79498;BMP180;75160;53.138;18.020;2024-02-23T01:37:46;98296.80;;;
79498;BMP180;75160;53.138;18.020;2024-02-23T01:38:48;98290.40;;;
79498;BMP180;75160;53.138;18.020;2024-02-23T01:39:50;98291.40;;;
79498;BMP180;75160;53.138;18.020;2024-02-23T01:40:51;98289.60;;;
79498;BMP180;75160;53.138;18.020;2024-02-23T01:41:53;98289.20;;;
79498;BMP180;75160;53.138;18.020;2024-02-23T01:43:06;98294.40;;;
79498;BMP180;75160;53.138;18.020;2024-02-23T01:44:08;98297.80;;;
79498;BMP180;75160;53.138;18.020;2024-02-23T01:45:09;98295.80;;;
79498;BMP180;75160;53.138;18.020;2024-02-23T01:46:11;98293.80;;;
79498;BMP180;75160;53.138;18.020;2024-02-23T01:47:13;98295.00;;;
79498;BMP180;75160;53.138;18.020;2024-02-23T01:48:16;98295.40;;;
79498;BMP180;75160;53.138;18.020;2024-02-23T01:49:20;98298.60;;;
79498;BMP180;75160;53.138;18.020;2024-02-23T01:50:23;98304.80;;;
79498;BMP180;75160;53.138;18.020;2024-02-23T01:51:25;98303.20;;;
79498;BMP180;75160;53.138;18.020;2024-02-23T01:52:27;98303.20;;;
79498;BMP180;75160;53.138;18.020;2024-02-23T01:53:30;98305.40;;;
79498;BMP180;75160;53.138;18.020;2024-02-23T01:54:33;98312.60;;;
79498;BMP180;75160;53.138;18.020;2024-02-23T01:55:37;98308.00;;;
79498;BMP180;75160;53.138;18.020;2024-02-23T01:56:39;98305.80;;;
79498;BMP180;75160;53.138;18.020;2024-02-23T01:57:42;98307.00;;;
79498;BMP180;75160;53.138;18.020;2024-02-23T01:58:43;98305.80;;;
79498;BMP180;75160;53.138;18.020;2024-02-23T01:59:49;98316.40;;;
79498;BMP180;75160;53.138;18.020;2024-02-23T02:00:51;98310.80;;;
79498;BMP180;75160;53.138;18.020;2024-02-23T02:01:53;98305.00;;;
79498;BMP180;75160;53.138;18.020;2024-02-23T02:02:55;98308.20;;;
79498;BMP180;75160;53.138;18.020;2024-02-23T02:04:00;98308.20;;;
79498;BMP180;75160;53.138;18.020;2024-02-23T02:05:03;98304.40;;;
79498;BMP180;75160;53.138;18.020;2024-02-23T02:06:10;98304.20;;;
79498;BMP180;75160;53.138;18.020;2024-02-23T02:07:12;98299.80;;;
79498;BMP180;75160;53.138;18.020;2024-02-23T02:08:14;98295.40;;;
79498;BMP180;75160;53.138;18.020;2024-02-23T02:09:17;98296.40;;;
79498;BMP180;75160;53.138;18.020;2024-02-23T02:10:20;98296.60;;;
79498;BMP180;75160;53.138;18.020;2024-02-23T02:11:23;98296.40;;;
79498;BMP180;75160;53.138;18.020;2024-02-23T02:12:28;98297.20;;;
79498;BMP180;75160;53.138;18.020;2024-02-23T02:13:30;98298.40;;;
79498;BMP180;75160;53.138;18.020;2024-02-23T02:14:32;98301.40;;;
79498;BMP180;75160;53.138;18.020;2024-02-23T02:15:35;98309.40;;;
79498;BMP180;75160;53.138;18.020;2024-02-23T02:16:37;98312.20;;;
79498;BMP180;75160;53.138;18.020;2024-02-23T02:17:38;98310.00;;;
79498;BMP180;75160;53.138;18.020;2024-02-23T02:18:40;98307.60;;;
79498;BMP180;75160;53.138;18.020;2024-02-23T02:19:48;98308.20;;;
79498;BMP180;75160;53.138;18.020;2024-02-23T02:20:59;98313.00;;;
79498;BMP180;75160;53.138;18.020;2024-02-23T02:22:01;98310.80;;;
79498;BMP180;75160;53.138;18.020;2024-02-23T02:23:03;98312.20;;;
79498;BMP180;75160;53.138;18.020;2024-02-23T02:24:06;98308.60;;;
79498;BMP180;75160;53.138;18.020;2024-02-23T02:25:08;98309.00;;;
79498;BMP180;75160;53.138;18.020;2024-02-23T02:26:10;98306.40;;;
79498;BMP180;75160;53.138;18.020;2024-02-23T02:27:12;98296.20;;;
79498;BMP180;75160;53.138;18.020;2024-02-23T02:28:14;98291.60;;;
79498;BMP180;75160;53.138;18.020;2024-02-23T02:29:16;98296.00;;;
79498;BMP180;75160;53.138;18.020;2024-02-23T02:30:17;98299.20;;;
79498;BMP180;75160;53.138;18.020;2024-02-23T02:31:19;98300.20;;;
79498;BMP180;75160;53.138;18.020;2024-02-23T02:32:23;98301.80;;;
79498;BMP180;75160;53.138;18.020;2024-02-23T02:33:25;98298.60;;;
79498;BMP180;75160;53.138;18.020;2024-02-23T02:34:27;98300.80;;;
79498;BMP180;75160;53.138;18.020;2024-02-23T02:35:30;98303.40;;;
79498;BMP180;75160;53.138;18.020;2024-02-23T02:36:32;98297.40;;;
79498;BMP180;75160;53.138;18.020;2024-02-23T02:37:34;98298.40;;;
79498;BMP180;75160;53.138;18.020;2024-02-23T02:38:36;98298.60;;;
79498;BMP180;75160;53.138;18.020;2024-02-23T02:39:38;98297.00;;;
79498;BMP180;75160;53.138;18.020;2024-02-23T02:40:40;98296.40;;;
79498;BMP180;75160;53.138;18.020;2024-02-23T02:41:42;98295.80;;;
79498;BMP180;75160;53.138;18.020;2024-02-23T02:42:44;98298.60;;;
79498;BMP180;75160;53.138;18.020;2024-02-23T02:43:45;98299.20;;;
79498;BMP180;75160;53.138;18.020;2024-02-23T02:44:47;98295.60;;;
79498;BMP180;75160;53.138;18.020;2024-02-23T02:45:49;98298.80;;;
79498;BMP180;75160;53.138;18.020;2024-02-23T02:46:51;98277.60;;;
79498;BMP180;75160;53.138;18.020;2024-02-23T02:47:53;98272.60;;;
79498;BMP180;75160;53.138;18.020;2024-02-23T02:48:55;98261.40;;;
79498;BMP180;75160;53.138;18.020;2024-02-23T02:49:57;98270.80;;;
79498;BMP180;75160;53.138;18.020;2024-02-23T02:50:59;98276.00;;;
79498;BMP180;75160;53.138;18.020;2024-02-23T02:52:00;98276.80;;;
79498;BMP180;75160;53.138;18.020;2024-02-23T02:53:03;98269.20;;;
79498;BMP180;75160;53.138;18.020;2024-02-23T02:54:05;98272.00;;;
79498;BMP180;75160;53.138;18.020;2024-02-23T02:55:08;98271.60;;;
79498;BMP180;75160;53.138;18.020;2024-02-23T02:56:10;98268.00;;;
79498;BMP180;75160;53.138;18.020;2024-02-23T02:57:14;98269.60;;;
79498;BMP180;75160;53.138;18.020;2024-02-23T02:58:15;98272.00;;;
79498;BMP180;75160;53.138;18.020;2024-02-23T02:59:18;98272.20;;;
79498;BMP180;75160;53.138;18.020;2024-02-23T03:00:20;98275.80;;;
79498;BMP180;75160;53.138;18.020;2024-02-23T03:01:22;98284.80;;;
79498;BMP180;75160;53.138;18.020;2024-02-23T03:02:23;98279.80;;;
79498;BMP180;75160;53.138;18.020;2024-02-23T03:03:25;98281.80;;;
79498;BMP180;75160;53.138;18.020;2024-02-23T03:04:47;98285.80;;;
79498;BMP180;75160;53.138;18.020;2024-02-23T03:05:49;98286.00;;;
79498;BMP180;75160;53.138;18.020;2024-02-23T03:06:50;98293.00;;;
79498;BMP180;75160;53.138;18.020;2024-02-23T03:07:52;98298.80;;;
79498;BMP180;75160;53.138;18.020;2024-02-23T03:08:54;98300.40;;;
79498;BMP180;75160;53.138;18.020;2024-02-23T03:09:56;98297.80;;;
79498;BMP180;75160;53.138;18.020;2024-02-23T03:10:58;98300.00;;;
79498;BMP180;75160;53.138;18.020;2024-02-23T03:11:59;98306.40;;;
79498;BMP180;75160;53.138;18.020;2024-02-23T03:13:01;98310.00;;;
79498;BMP180;75160;53.138;18.020;2024-02-23T03:14:03;98305.60;;;
79498;BMP180;75160;53.138;18.020;2024-02-23T03:15:05;98308.00;;;
79498;BMP180;75160;53.138;18.020;2024-02-23T03:16:17;98301.40;;;
79498;BMP180;75160;53.138;18.020;2024-02-23T03:17:19;98312.80;;;
79498;BMP180;75160;53.138;18.020;2024-02-23T03:18:21;98304.40;;;
79498;BMP180;75160;53.138;18.020;2024-02-23T03:19:23;98302.80;;;
79498;BMP180;75160;53.138;18.020;2024-02-23T03:20:25;98306.40;;;
79498;BMP180;75160;53.138;18.020;2024-02-23T03:21:27;98307.20;;;
79498;BMP180;75160;53.138;18.020;2024-02-23T03:22:29;98301.00;;;
79498;BMP180;75160;53.138;18.020;2024-02-23T03:23:30;98307.40;;;
79498;BMP180;75160;53.138;18.020;2024-02-23T03:24:33;98306.60;;;
79498;BMP180;75160;53.138;18.020;2024-02-23T03:25:35;98311.20;;;
79498;BMP180;75160;53.138;18.020;2024-02-23T03:26:36;98312.80;;;
79498;BMP180;75160;53.138;18.020;2024-02-23T03:27:38;98320.00;;;
79498;BMP180;75160;53.138;18.020;2024-02-23T03:28:40;98316.00;;;
79498;BMP180;75160;53.138;18.020;2024-02-23T03:29:42;98312.40;;;
79498;BMP180;75160;53.138;18.020;2024-02-23T03:30:43;98307.60;;;
79498;BMP180;75160;53.138;18.020;2024-02-23T03:31:45;98308.60;;;
79498;BMP180;75160;53.138;18.020;2024-02-23T03:32:47;98311.60;;;
79498;BMP180;75160;53.138;18.020;2024-02-23T03:33:49;98305.80;;;
79498;BMP180;75160;53.138;18.020;2024-02-23T03:34:50;98313.00;;;
79498;BMP180;75160;53.138;18.020;2024-02-23T03:35:53;98314.60;;;
79498;BMP180;75160;53.138;18.020;2024-02-23T03:36:55;98312.80;;;
79498;BMP180;75160;53.138;18.020;2024-02-23T03:37:57;98316.00;;;
79498;BMP180;75160;53.138;18.020;2024-02-23T03:38:58;98315.60;;;
79498;BMP180;75160;53.138;18.020;2024-02-23T03:40:00;98316.40;;;
79498;BMP180;75160;53.138;18.020;2024-02-23T03:41:02;98315.20;;;
79498;BMP180;75160;53.138;18.020;2024-02-23T03:42:05;98315.60;;;
79498;BMP180;75160;53.138;18.020;2024-02-23T03:43:06;98315.60;;;
79498;BMP180;75160;53.138;18.020;2024-02-23T03:44:08;98314.20;;;
79498;BMP180;75160;53.138;18.020;2024-02-23T03:45:10;98319.40;;;
79498;BMP180;75160;53.138;18.020;2024-02-23T03:46:12;98320.20;;;
79498;BMP180;75160;53.138;18.020;2024-02-23T03:47:15;98321.00;;;
79498;BMP180;75160;53.138;18.020;2024-02-23T03:48:17;98321.80;;;
79498;BMP180;75160;53.138;18.020;2024-02-23T03:49:18;98329.00;;;
79498;BMP180;75160;53.138;18.020;2024-02-23T03:50:20;98329.40;;;
79498;BMP180;75160;53.138;18.020;2024-02-23T03:51:22;98333.40;;;
79498;BMP180;75160;53.138;18.020;2024-02-23T03:52:26;98337.20;;;
79498;BMP180;75160;53.138;18.020;2024-02-23T03:53:28;98336.40;;;
79498;BMP180;75160;53.138;18.020;2024-02-23T03:54:30;98339.80;;;
79498;BMP180;75160;53.138;18.020;2024-02-23T03:55:32;98345.60;;;
79498;BMP180;75160;53.138;18.020;2024-02-23T03:56:42;98347.40;;;
79498;BMP180;75160;53.138;18.020;2024-02-23T03:57:44;98347.80;;;
79498;BMP180;75160;53.138;18.020;2024-02-23T03:58:45;98348.80;;;
79498;BMP180;75160;53.138;18.020;2024-02-23T03:59:55;98351.40;;;
79498;BMP180;75160;53.138;18.020;2024-02-23T04:00:57;98353.00;;;
79498;BMP180;75160;53.138;18.020;2024-02-23T04:01:59;98353.80;;;
79498;BMP180;75160;53.138;18.020;2024-02-23T04:03:01;98356.40;;;
79498;BMP180;75160;53.138;18.020;2024-02-23T04:04:04;98356.20;;;
79498;BMP180;75160;53.138;18.020;2024-02-23T04:05:07;98361.60;;;
79498;BMP180;75160;53.138;18.020;2024-02-23T04:06:08;98360.00;;;
79498;BMP180;75160;53.138;18.020;2024-02-23T04:07:10;98359.20;;;
79498;BMP180;75160;53.138;18.020;2024-02-23T04:08:12;98361.60;;;
79498;BMP180;75160;53.138;18.020;2024-02-23T04:09:14;98367.00;;;
79498;BMP180;75160;53.138;18.020;2024-02-23T04:10:16;98358.00;;;
79498;BMP180;75160;53.138;18.020;2024-02-23T04:11:18;98372.80;;;
79498;BMP180;75160;53.138;18.020;2024-02-23T04:12:21;98372.00;;;
79498;BMP180;75160;53.138;18.020;2024-02-23T04:13:23;98378.20;;;
79498;BMP180;75160;53.138;18.020;2024-02-23T04:14:25;98383.60;;;
79498;BMP180;75160;53.138;18.020;2024-02-23T04:15:27;98380.00;;;
79498;BMP180;75160;53.138;18.020;2024-02-23T04:16:29;98375.00;;;
79498;BMP180;75160;53.138;18.020;2024-02-23T04:17:31;98382.80;;;
79498;BMP180;75160;53.138;18.020;2024-02-23T04:18:33;98385.60;;;
79498;BMP180;75160;53.138;18.020;2024-02-23T04:19:34;98381.20;;;
79498;BMP180;75160;53.138;18.020;2024-02-23T04:20:36;98388.20;;;
79498;BMP180;75160;53.138;18.020;2024-02-23T04:21:38;98387.40;;;
79498;BMP180;75160;53.138;18.020;2024-02-23T04:22:40;98385.80;;;
79498;BMP180;75160;53.138;18.020;2024-02-23T04:23:43;98386.00;;;
79498;BMP180;75160;53.138;18.020;2024-02-23T04:24:45;98383.40;;;
79498;BMP180;75160;53.138;18.020;2024-02-23T04:25:47;98385.60;;;
79498;BMP180;75160;53.138;18.020;2024-02-23T04:26:49;98390.40;;;
79498;BMP180;75160;53.138;18.020;2024-02-23T04:27:51;98396.00;;;
79498;BMP180;75160;53.138;18.020;2024-02-23T04:28:52;98388.60;;;
79498;BMP180;75160;53.138;18.020;2024-02-23T04:29:54;98391.80;;;
79498;BMP180;75160;53.138;18.020;2024-02-23T04:30:56;98395.40;;;
79498;BMP180;75160;53.138;18.020;2024-02-23T04:32:00;98398.80;;;
79498;BMP180;75160;53.138;18.020;2024-02-23T04:33:03;98395.40;;;
79498;BMP180;75160;53.138;18.020;2024-02-23T04:34:04;98399.80;;;
79498;BMP180;75160;53.138;18.020;2024-02-23T04:35:07;98405.40;;;
79498;BMP180;75160;53.138;18.020;2024-02-23T04:36:09;98399.20;;;
79498;BMP180;75160;53.138;18.020;2024-02-23T04:37:10;98407.40;;;
79498;BMP180;75160;53.138;18.020;2024-02-23T04:38:14;98398.20;;;
79498;BMP180;75160;53.138;18.020;2024-02-23T04:39:15;98398.00;;;
79498;BMP180;75160;53.138;18.020;2024-02-23T04:40:17;98406.00;;;
79498;BMP180;75160;53.138;18.020;2024-02-23T04:41:20;98407.20;;;
79498;BMP180;75160;53.138;18.020;2024-02-23T04:42:25;98403.80;;;
79498;BMP180;75160;53.138;18.020;2024-02-23T04:43:26;98404.80;;;
79498;BMP180;75160;53.138;18.020;2024-02-23T04:44:28;98405.80;;;
79498;BMP180;75160;53.138;18.020;2024-02-23T04:45:30;98401.20;;;
79498;BMP180;75160;53.138;18.020;2024-02-23T04:46:32;98406.40;;;
79498;BMP180;75160;53.138;18.020;2024-02-23T04:47:35;98406.40;;;
79498;BMP180;75160;53.138;18.020;2024-02-23T04:48:37;98405.60;;;
79498;BMP180;75160;53.138;18.020;2024-02-23T04:49:39;98405.00;;;
79498;BMP180;75160;53.138;18.020;2024-02-23T04:50:41;98412.40;;;
79498;BMP180;75160;53.138;18.020;2024-02-23T04:51:43;98409.80;;;
79498;BMP180;75160;53.138;18.020;2024-02-23T04:52:45;98415.80;;;
79498;BMP180;75160;53.138;18.020;2024-02-23T04:53:47;98420.20;;;
79498;BMP180;75160;53.138;18.020;2024-02-23T04:54:49;98416.00;;;
79498;BMP180;75160;53.138;18.020;2024-02-23T04:55:50;98412.80;;;
79498;BMP180;75160;53.138;18.020;2024-02-23T04:56:52;98423.00;;;
79498;BMP180;75160;53.138;18.020;2024-02-23T04:57:54;98421.60;;;
79498;BMP180;75160;53.138;18.020;2024-02-23T04:58:56;98423.00;;;
79498;BMP180;75160;53.138;18.020;2024-02-23T04:59:59;98422.60;;;
79498;BMP180;75160;53.138;18.020;2024-02-23T05:01:01;98428.80;;;
79498;BMP180;75160;53.138;18.020;2024-02-23T05:02:04;98428.00;;;
79498;BMP180;75160;53.138;18.020;2024-02-23T05:03:06;98431.20;;;
79498;BMP180;75160;53.138;18.020;2024-02-23T05:04:08;98432.60;;;
79498;BMP180;75160;53.138;18.020;2024-02-23T05:05:10;98432.60;;;
79498;BMP180;75160;53.138;18.020;2024-02-23T05:06:12;98435.00;;;
79498;BMP180;75160;53.138;18.020;2024-02-23T05:07:15;98436.40;;;
79498;BMP180;75160;53.138;18.020;2024-02-23T05:08:16;98434.00;;;
79498;BMP180;75160;53.138;18.020;2024-02-23T05:09:18;98440.60;;;
79498;BMP180;75160;53.138;18.020;2024-02-23T05:10:20;98434.80;;;
79498;BMP180;75160;53.138;18.020;2024-02-23T05:11:22;98437.20;;;
79498;BMP180;75160;53.138;18.020;2024-02-23T05:12:24;98436.40;;;
79498;BMP180;75160;53.138;18.020;2024-02-23T05:13:26;98437.40;;;
79498;BMP180;75160;53.138;18.020;2024-02-23T05:14:28;98446.20;;;
79498;BMP180;75160;53.138;18.020;2024-02-23T05:15:30;98441.60;;;
79498;BMP180;75160;53.138;18.020;2024-02-23T05:16:32;98449.60;;;
79498;BMP180;75160;53.138;18.020;2024-02-23T05:17:34;98449.40;;;
79498;BMP180;75160;53.138;18.020;2024-02-23T05:18:35;98450.00;;;
79498;BMP180;75160;53.138;18.020;2024-02-23T05:19:37;98452.20;;;
79498;BMP180;75160;53.138;18.020;2024-02-23T05:20:39;98448.40;;;
79498;BMP180;75160;53.138;18.020;2024-02-23T05:21:41;98454.80;;;
79498;BMP180;75160;53.138;18.020;2024-02-23T05:22:43;98456.80;;;
79498;BMP180;75160;53.138;18.020;2024-02-23T05:23:44;98453.40;;;
79498;BMP180;75160;53.138;18.020;2024-02-23T05:24:48;98456.40;;;
79498;BMP180;75160;53.138;18.020;2024-02-23T05:25:49;98460.20;;;
79498;BMP180;75160;53.138;18.020;2024-02-23T05:26:51;98459.00;;;
79498;BMP180;75160;53.138;18.020;2024-02-23T05:27:53;98456.80;;;
79498;BMP180;75160;53.138;18.020;2024-02-23T05:28:55;98456.80;;;
79498;BMP180;75160;53.138;18.020;2024-02-23T05:29:56;98456.00;;;
79498;BMP180;75160;53.138;18.020;2024-02-23T05:31:02;98458.60;;;
79498;BMP180;75160;53.138;18.020;2024-02-23T05:32:07;98468.40;;;
79498;BMP180;75160;53.138;18.020;2024-02-23T05:33:09;98472.20;;;
79498;BMP180;75160;53.138;18.020;2024-02-23T05:34:11;98475.60;;;
79498;BMP180;75160;53.138;18.020;2024-02-23T05:35:13;98478.60;;;
79498;BMP180;75160;53.138;18.020;2024-02-23T05:36:15;98481.20;;;
79498;BMP180;75160;53.138;18.020;2024-02-23T05:37:17;98485.20;;;
79498;BMP180;75160;53.138;18.020;2024-02-23T05:38:19;98485.80;;;
79498;BMP180;75160;53.138;18.020;2024-02-23T05:39:21;98486.20;;;
79498;BMP180;75160;53.138;18.020;2024-02-23T05:40:23;98495.60;;;
79498;BMP180;75160;53.138;18.020;2024-02-23T05:41:25;98488.60;;;
79498;BMP180;75160;53.138;18.020;2024-02-23T05:42:26;98493.80;;;
79498;BMP180;75160;53.138;18.020;2024-02-23T05:43:28;98497.60;;;
79498;BMP180;75160;53.138;18.020;2024-02-23T05:44:30;98498.00;;;
79498;BMP180;75160;53.138;18.020;2024-02-23T05:45:33;98496.60;;;
79498;BMP180;75160;53.138;18.020;2024-02-23T05:46:36;98504.40;;;
79498;BMP180;75160;53.138;18.020;2024-02-23T05:47:39;98500.20;;;
79498;BMP180;75160;53.138;18.020;2024-02-23T05:48:41;98502.80;;;
79498;BMP180;75160;53.138;18.020;2024-02-23T05:49:42;98502.60;;;
79498;BMP180;75160;53.138;18.020;2024-02-23T05:50:44;98512.40;;;
79498;BMP180;75160;53.138;18.020;2024-02-23T05:51:46;98511.20;;;
79498;BMP180;75160;53.138;18.020;2024-02-23T05:52:48;98508.60;;;
79498;BMP180;75160;53.138;18.020;2024-02-23T05:53:49;98514.60;;;
79498;BMP180;75160;53.138;18.020;2024-02-23T05:54:51;98512.80;;;
79498;BMP180;75160;53.138;18.020;2024-02-23T05:55:55;98517.40;;;
79498;BMP180;75160;53.138;18.020;2024-02-23T05:56:57;98519.00;;;
79498;BMP180;75160;53.138;18.020;2024-02-23T05:57:59;98522.60;;;
79498;BMP180;75160;53.138;18.020;2024-02-23T05:59:05;98521.20;;;
79498;BMP180;75160;53.138;18.020;2024-02-23T06:00:08;98530.00;;;
79498;BMP180;75160;53.138;18.020;2024-02-23T06:01:10;98537.40;;;
79498;BMP180;75160;53.138;18.020;2024-02-23T06:02:15;98541.40;;;
79498;BMP180;75160;53.138;18.020;2024-02-23T06:03:17;98542.00;;;
79498;BMP180;75160;53.138;18.020;2024-02-23T06:04:20;98544.00;;;
79498;BMP180;75160;53.138;18.020;2024-02-23T06:05:21;98549.40;;;
79498;BMP180;75160;53.138;18.020;2024-02-23T06:06:23;98548.40;;;
79498;BMP180;75160;53.138;18.020;2024-02-23T06:07:25;98556.80;;;
79498;BMP180;75160;53.138;18.020;2024-02-23T06:08:30;98558.60;;;
79498;BMP180;75160;53.138;18.020;2024-02-23T06:09:32;98554.20;;;
79498;BMP180;75160;53.138;18.020;2024-02-23T06:10:34;98561.00;;;
79498;BMP180;75160;53.138;18.020;2024-02-23T06:11:36;98561.00;;;
79498;BMP180;75160;53.138;18.020;2024-02-23T06:12:38;98564.80;;;
79498;BMP180;75160;53.138;18.020;2024-02-23T06:13:40;98571.20;;;
79498;BMP180;75160;53.138;18.020;2024-02-23T06:14:42;98575.00;;;
79498;BMP180;75160;53.138;18.020;2024-02-23T06:15:44;98569.20;;;
79498;BMP180;75160;53.138;18.020;2024-02-23T06:16:46;98578.20;;;
79498;BMP180;75160;53.138;18.020;2024-02-23T06:17:48;98577.80;;;
79498;BMP180;75160;53.138;18.020;2024-02-23T06:18:50;98581.40;;;
79498;BMP180;75160;53.138;18.020;2024-02-23T06:19:52;98587.40;;;
79498;BMP180;75160;53.138;18.020;2024-02-23T06:21:01;98586.20;;;
79498;BMP180;75160;53.138;18.020;2024-02-23T06:22:04;98592.00;;;